Time;durP1;ratioP1;P1;durP2;ratioP2;P2;SDS_P1;SDS_P2;PMS_P1;PMS_P2;Temp;Humidity;BMP_temperature;BMP_pressure;BME280_temperature;BME280_humidity;BME280_pressure;Samples;Min_cycle;Max_cycle;Signal;HPM_P1;HPM_P2
2022/02/17 00:02:04;;;;;;;3.80;1.70;;;;;;;8.41;74.22;97809.52;2113457;84;21542;-86
2022/02/17 00:05:06;;;;;;;3.22;1.45;;;;;;;8.47;74.12;97809.20;2111858;84;21066;-87
2022/02/17 00:08:08;;;;;;;1.72;1.37;;;;;;;8.54;74.12;97796.78;2107856;84;21061;-87
2022/02/17 00:11:09;;;;;;;3.35;1.40;;;;;;;8.64;74.00;97791.03;2114359;84;21084;-86
2022/02/17 00:14:10;;;;;;;2.60;1.50;;;;;;;8.74;73.89;97786.11;2114114;83;21493;-86
2022/02/17 00:17:11;;;;;;;3.65;1.42;;;;;;;8.82;73.92;97772.64;2111959;84;21028;-86
2022/02/17 00:20:13;;;;;;;2.35;1.35;;;;;;;8.87;74.07;97769.34;2106805;84;20974;-87
2022/02/17 00:23:14;;;;;;;2.77;1.37;;;;;;;8.92;74.54;97764.23;2107744;84;20993;-86
2022/02/17 00:26:15;;;;;;;8.53;1.98;;;;;;;8.91;74.54;97740.14;2113109;84;20998;-87
2022/02/17 00:29:16;;;;;;;1.62;1.47;;;;;;;8.85;74.75;97705.30;2119748;83;21062;-86
2022/02/17 00:32:18;;;;;;;4.20;1.60;;;;;;;8.82;75.16;97689.87;2106005;84;20989;-86
2022/02/17 00:35:19;;;;;;;1.95;1.40;;;;;;;8.76;75.51;97691.53;2111939;84;21025;-85
2022/02/17 00:38:20;;;;;;;2.62;1.90;;;;;;;8.69;76.15;97689.43;2085504;84;21463;-85
2022/02/17 00:41:22;;;;;;;1.72;1.50;;;;;;;8.64;75.93;97685.29;2117825;84;21028;-85
2022/02/17 00:44:25;;;;;;;2.77;1.25;;;;;;;8.57;76.29;97663.39;2109965;84;21082;-86
2022/02/17 00:47:26;;;;;;;5.87;1.67;;;;;;;8.52;76.71;97659.54;2115870;84;21556;-85
2022/02/17 00:50:28;;;;;;;1.87;1.42;;;;;;;8.48;77.09;97649.62;2114313;84;21041;-84
2022/02/17 00:53:29;;;;;;;1.62;1.40;;;;;;;8.46;77.57;97636.62;2115262;84;21029;-86
2022/02/17 00:56:30;;;;;;;4.03;1.80;;;;;;;8.43;77.48;97626.99;2115413;84;21009;-86
2022/02/17 00:59:32;;;;;;;2.70;1.20;;;;;;;8.39;77.52;97620.02;2108551;83;21049;-87
2022/02/17 01:02:33;;;;;;;2.30;1.50;;;;;;;8.36;77.86;97615.09;2115999;84;21050;-86
2022/02/17 01:05:34;;;;;;;1.47;1.20;;;;;;;8.36;77.96;97620.38;2111974;84;21030;-86
2022/02/17 01:08:36;;;;;;;2.10;1.32;;;;;;;8.39;78.48;97612.57;2113718;83;21034;-86
2022/02/17 01:11:39;;;;;;;2.92;1.50;;;;;;;8.40;78.38;97627.42;2115045;84;21614;-85
2022/02/17 01:14:40;;;;;;;5.22;1.50;;;;;;;8.41;78.54;97610.53;2105210;84;21025;-86
2022/02/17 01:17:42;;;;;;;1.82;1.15;;;;;;;8.40;78.77;97604.45;2108739;84;21009;-86
2022/02/17 01:20:43;;;;;;;1.62;1.27;;;;;;;8.41;79.13;97578.83;2109865;84;21077;-85
2022/02/17 01:23:45;;;;;;;1.10;0.98;;;;;;;8.41;79.35;97550.56;2116682;84;21430;-86
2022/02/17 01:26:46;;;;;;;1.10;1.00;;;;;;;8.45;79.47;97538.55;2107615;83;21043;-86
2022/02/17 01:29:50;;;;;;;1.07;0.95;;;;;;;8.48;79.13;97531.51;2112913;84;21098;-85
2022/02/17 01:32:53;;;;;;;1.17;1.00;;;;;;;8.50;79.13;97528.14;2109208;84;21073;-86
2022/02/17 01:35:54;;;;;;;2.47;0.98;;;;;;;8.54;79.35;97527.20;2116557;84;21007;-87
2022/02/17 01:38:56;;;;;;;1.30;0.78;;;;;;;8.60;79.52;97499.09;2110595;83;21027;-86
2022/02/17 01:41:58;;;;;;;2.67;0.90;;;;;;;8.66;79.38;97486.31;2111610;83;21057;-86
2022/02/17 01:45:06;;;;;;;1.40;0.68;;;;;;;8.69;79.56;97454.16;2113003;84;20983;-86
2022/02/17 01:48:07;;;;;;;3.65;0.82;;;;;;;8.72;79.52;97456.36;2110444;84;21499;-85
2022/02/17 01:51:11;;;;;;;0.78;0.60;;;;;;;8.71;79.76;97433.59;2104628;84;21086;-86
2022/02/17 01:54:13;;;;;;;1.12;0.93;;;;;;;8.72;80.03;97424.11;2108638;84;21817;-87
2022/02/17 01:57:22;;;;;;;0.80;0.70;;;;;;;8.73;79.74;97419.66;2119069;83;20975;-85
2022/02/17 02:00:26;;;;;;;1.60;0.80;;;;;;;8.71;79.84;97415.89;2120431;84;21073;-85
2022/02/17 02:03:27;;;;;;;1.40;0.72;;;;;;;8.72;79.84;97396.35;2114883;84;21081;-86
2022/02/17 02:06:30;;;;;;;2.67;1.02;;;;;;;8.74;79.83;97397.47;2117736;84;21559;-85
2022/02/17 02:09:34;;;;;;;0.93;0.78;;;;;;;8.75;79.92;97390.62;2105821;84;21564;-85
2022/02/17 02:12:37;;;;;;;2.92;0.60;;;;;;;8.78;79.82;97377.48;2110714;84;21090;-87
2022/02/17 02:15:52;;;;;;;3.08;0.68;;;;;;;8.82;80.02;97378.66;2111470;84;21065;-87
2022/02/17 02:18:55;;;;;;;0.82;0.60;;;;;;;8.85;79.70;97361.03;2110264;84;21074;-86
2022/02/17 02:21:56;;;;;;;0.65;0.50;;;;;;;8.91;79.65;97362.78;2112132;84;21063;-85
2022/02/17 02:25:01;;;;;;;2.15;0.90;;;;;;;8.94;79.44;97345.66;2119759;84;21053;-86
2022/02/17 02:28:04;;;;;;;0.82;0.60;;;;;;;8.98;79.52;97342.36;2107907;84;21108;-86
2022/02/17 02:31:05;;;;;;;0.68;0.68;;;;;;;9.04;79.25;97339.82;2114178;84;21544;-85
2022/02/17 02:34:06;;;;;;;0.75;0.62;;;;;;;9.08;79.11;97327.25;2110260;84;21027;-86
2022/02/17 02:37:09;;;;;;;1.65;0.60;;;;;;;9.12;78.97;97305.95;2115429;84;21239;-85
2022/02/17 02:40:11;;;;;;;0.60;0.60;;;;;;;9.17;78.65;97306.58;2119549;84;21006;-85
2022/02/17 02:43:13;;;;;;;0.50;0.50;;;;;;;9.24;78.43;97295.39;2111576;84;21048;-84
2022/02/17 02:46:15;;;;;;;0.60;0.60;;;;;;;9.24;78.14;97283.48;2115010;84;21034;-86
2022/02/17 02:49:17;;;;;;;0.53;0.53;;;;;;;9.27;78.03;97282.23;2104091;84;21057;-85
2022/02/17 02:52:19;;;;;;;1.27;0.60;;;;;;;9.27;77.93;97269.00;2114243;84;21082;-87
2022/02/17 02:55:21;;;;;;;0.57;0.57;;;;;;;9.27;77.86;97266.36;2110707;84;21092;-86
2022/02/17 02:58:23;;;;;;;1.07;0.80;;;;;;;9.30;77.86;97248.70;2110848;84;21085;-87
2022/02/17 03:01:25;;;;;;;0.70;0.70;;;;;;;9.34;77.84;97245.34;2111778;84;21138;-87
2022/02/17 03:04:27;;;;;;;0.40;0.40;;;;;;;9.42;77.71;97239.72;2106375;84;21046;-86
2022/02/17 03:07:28;;;;;;;2.12;0.70;;;;;;;9.46;77.60;97237.94;2112201;84;21477;-87
2022/02/17 03:10:30;;;;;;;0.60;0.60;;;;;;;9.49;77.55;97238.30;2114732;84;21090;-86
2022/02/17 03:13:32;;;;;;;0.70;0.60;;;;;;;9.52;77.44;97238.36;2135946;83;21026;-85
2022/02/17 03:16:33;;;;;;;2.50;0.80;;;;;;;9.58;77.32;97221.55;2142782;82;21088;-86
2022/02/17 03:19:35;;;;;;;0.65;0.60;;;;;;;9.63;77.22;97229.61;2137340;83;20944;-87
2022/02/17 03:22:38;;;;;;;1.30;0.75;;;;;;;9.65;77.11;97213.76;2145062;82;21106;-86
2022/02/17 03:25:40;;;;;;;0.60;0.60;;;;;;;9.66;76.97;97205.33;2140998;83;21058;-86
2022/02/17 03:28:42;;;;;;;0.68;0.50;;;;;;;9.72;76.97;97195.65;2142720;82;21033;-85
2022/02/17 03:31:45;;;;;;;0.47;0.47;;;;;;;9.75;76.83;97200.48;2135157;82;21042;-87
2022/02/17 03:34:46;;;;;;;0.78;0.60;;;;;;;9.76;76.74;97201.55;2143021;83;21152;-86
2022/02/17 03:37:50;;;;;;;0.60;0.60;;;;;;;9.74;76.67;97203.66;2141687;83;21121;-87
2022/02/17 03:40:52;;;;;;;0.75;0.60;;;;;;;9.74;76.63;97189.09;2137667;83;21584;-87
2022/02/17 03:43:55;;;;;;;0.60;0.60;;;;;;;9.75;76.61;97183.27;2090525;83;21037;-87
2022/02/17 03:46:58;;;;;;;0.72;0.70;;;;;;;9.77;76.50;97175.38;2139934;82;21565;-86
2022/02/17 03:50:03;;;;;;;0.50;0.50;;;;;;;9.77;76.52;97170.58;2141191;83;21067;-86
2022/02/17 03:53:06;;;;;;;0.80;0.55;;;;;;;9.78;76.52;97180.15;2140560;83;21047;-86
2022/02/17 03:56:09;;;;;;;0.53;0.50;;;;;;;9.82;76.51;97170.16;2141584;83;21139;-86
2022/02/17 03:59:29;;;;;;;0.50;0.50;;;;;;;9.88;76.34;97167.93;2140313;82;21017;-87
2022/02/17 04:02:31;;;;;;;0.82;0.50;;;;;;;9.91;76.28;97163.18;2140663;83;21023;-86
2022/02/17 04:05:34;;;;;;;0.60;0.60;;;;;;;9.95;76.14;97150.57;2137440;83;20957;-86
2022/02/17 04:08:37;;;;;;;0.50;0.50;;;;;;;9.97;76.08;97155.65;2143378;83;21090;-86
2022/02/17 04:11:38;;;;;;;0.50;0.50;;;;;;;10.01;76.03;97156.77;2143880;83;21427;-86
2022/02/17 04:14:40;;;;;;;0.40;0.40;;;;;;;10.05;76.01;97152.11;2136773;83;21080;-85
2022/02/17 04:17:42;;;;;;;0.53;0.53;;;;;;;10.10;75.84;97175.22;2131476;83;21036;-86
2022/02/17 04:20:46;;;;;;;5.55;1.10;;;;;;;10.27;75.96;97443.77;2131926;83;21041;-87
2022/02/17 04:23:52;;;;;;;6.92;1.40;;;;;;;9.46;69.98;97474.81;2111822;84;21044;-86
2022/02/17 04:26:55;;;;;;;1.70;1.10;;;;;;;8.11;71.37;97471.13;2106797;84;21065;-87
2022/02/17 04:30:09;;;;;;;6.65;1.15;;;;;;;7.25;72.85;97458.45;2108817;84;21070;-86
2022/02/17 04:33:10;;;;;;;1.62;1.00;;;;;;;6.71;74.40;97434.93;2111518;84;21059;-86
2022/02/17 04:36:16;;;;;;;5.50;1.42;;;;;;;6.38;74.59;97419.71;2105666;84;21038;-85
2022/02/17 04:39:18;;;;;;;5.75;1.17;;;;;;;6.13;76.05;97399.80;2138720;82;21060;-87
2022/02/17 04:42:23;;;;;;;4.70;1.02;;;;;;;5.96;76.23;97388.88;2143306;83;21092;-85
2022/02/17 04:45:29;;;;;;;2.62;0.98;;;;;;;5.83;76.55;97424.69;2140859;83;21017;-86
2022/02/17 04:48:32;;;;;;;4.10;1.12;;;;;;;5.76;76.85;97389.66;2143598;82;21120;-87
2022/02/17 04:51:35;;;;;;;5.20;1.15;;;;;;;5.72;76.92;97363.97;2134423;82;21524;-86
2022/02/17 04:54:38;;;;;;;4.12;0.95;;;;;;;5.70;77.14;97369.42;2141279;83;21565;-86
2022/02/17 04:57:39;;;;;;;2.77;1.00;;;;;;;5.69;77.37;97365.66;2133728;83;21289;-86
2022/02/17 05:00:41;;;;;;;3.00;1.07;;;;;;;5.68;77.49;97368.81;2138143;83;20988;-87
2022/02/17 05:03:44;;;;;;;4.78;1.12;;;;;;;5.71;77.65;97364.97;2113843;82;21084;-86
2022/02/17 05:06:47;;;;;;;6.03;1.40;;;;;;;5.74;77.77;97348.26;2135666;82;21807;-86
2022/02/17 05:09:49;;;;;;;7.97;3.75;;;;;;;5.74;77.99;97389.04;2137262;83;21129;-86
2022/02/17 05:12:51;;;;;;;5.25;1.90;;;;;;;5.76;78.21;97396.23;2139328;83;21066;-86
2022/02/17 05:15:53;;;;;;;5.00;1.30;;;;;;;5.79;78.43;97387.94;2139622;83;21033;-85
2022/02/17 05:18:55;;;;;;;3.95;1.80;;;;;;;5.81;78.52;97381.16;2135421;82;21370;-87
2022/02/17 05:21:58;;;;;;;5.55;1.55;;;;;;;5.83;78.63;97380.47;2137805;83;21036;-87
2022/02/17 05:25:18;;;;;;;5.53;1.55;;;;;;;5.84;78.80;97367.09;2141622;83;21616;-85
2022/02/17 05:28:21;;;;;;;5.50;1.60;;;;;;;5.83;78.93;97386.53;2134627;83;21049;-86
2022/02/17 05:31:41;;;;;;;6.90;3.67;;;;;;;5.85;79.04;97379.22;2141878;83;21032;-86
2022/02/17 05:34:44;;;;;;;6.05;3.85;;;;;;;5.86;79.28;97399.80;2126645;82;21098;-85
2022/02/17 05:38:06;;;;;;;5.03;2.75;;;;;;;5.85;79.97;97401.59;2139550;83;21101;-85
2022/02/17 05:41:15;;;;;;;4.35;1.55;;;;;;;5.83;80.04;97393.11;2133323;82;21692;-85
2022/02/17 05:44:17;;;;;;;5.05;1.50;;;;;;;5.84;80.72;97409.70;2135670;83;20991;-86
2022/02/17 05:47:18;;;;;;;4.00;1.12;;;;;;;5.85;80.93;97400.27;2145273;82;21031;-86
2022/02/17 05:50:21;;;;;;;4.95;1.20;;;;;;;5.93;81.30;97401.09;2139521;82;20981;-84
2022/02/17 05:53:24;;;;;;;4.08;1.10;;;;;;;6.05;81.63;97409.53;2136071;83;21016;-86
2022/02/17 05:56:25;;;;;;;2.50;1.00;;;;;;;6.17;81.80;97383.39;2137461;82;21042;-85
2022/02/17 05:59:27;;;;;;;2.67;0.98;;;;;;;6.27;81.27;97382.44;2138247;83;21583;-86
2022/02/17 06:02:28;;;;;;;5.47;1.40;;;;;;;6.33;81.71;97335.23;2133849;82;21024;-86
2022/02/17 06:05:29;;;;;;;4.72;1.67;;;;;;;6.36;81.79;97342.20;2137784;82;21058;-86
2022/02/17 06:08:31;;;;;;;2.85;1.05;;;;;;;6.38;81.48;97337.55;2137873;83;21046;-85
2022/02/17 06:11:32;;;;;;;2.80;1.00;;;;;;;6.42;81.42;97322.97;2139314;82;20973;-87
2022/02/17 06:14:36;;;;;;;2.65;1.10;;;;;;;6.46;81.47;97344.42;2139932;83;21143;-86
2022/02/17 06:17:37;;;;;;;2.72;1.27;;;;;;;6.44;81.67;97330.64;2138868;83;20992;-86
2022/02/17 06:20:38;;;;;;;5.03;2.35;;;;;;;6.44;81.61;97332.77;2137078;82;21106;-86
2022/02/17 06:23:40;;;;;;;5.58;1.40;;;;;;;6.45;81.99;97338.34;2135940;83;21044;-86
2022/02/17 06:26:41;;;;;;;3.02;1.10;;;;;;;6.45;81.83;97365.20;2136392;82;21507;-85
2022/02/17 06:29:42;;;;;;;3.98;1.85;;;;;;;6.45;82.19;97377.05;2135183;82;20966;-86
2022/02/17 06:32:50;;;;;;;1.27;1.20;;;;;;;6.47;82.03;97382.39;2140862;83;21040;-87
2022/02/17 06:35:51;;;;;;;2.60;1.32;;;;;;;6.53;81.86;97408.41;2137086;82;21644;-85
2022/02/17 06:38:52;;;;;;;2.35;1.00;;;;;;;6.57;81.83;97401.73;2135102;82;20993;-85
2022/02/17 06:41:54;;;;;;;6.12;1.20;;;;;;;6.61;82.08;97405.56;2111416;84;21058;-85
2022/02/17 06:44:56;;;;;;;2.00;1.20;;;;;;;6.63;81.98;97414.08;2136600;82;20980;-86
2022/02/17 06:47:57;;;;;;;3.30;1.20;;;;;;;6.62;82.20;97408.52;2136570;83;20973;-84
2022/02/17 06:50:59;;;;;;;3.00;1.12;;;;;;;6.62;82.13;97428.27;2143273;83;21536;-86
2022/02/17 06:54:00;;;;;;;4.10;0.95;;;;;;;6.62;81.88;97458.58;2141113;83;21028;-86
2022/02/17 06:57:01;;;;;;;3.45;1.15;;;;;;;6.57;81.98;97433.34;2145715;83;20979;-85
2022/02/17 07:00:05;;;;;;;4.35;1.10;;;;;;;6.50;81.82;97463.67;2143743;83;21033;-86
2022/02/17 07:03:07;;;;;;;2.42;1.05;;;;;;;6.47;81.39;97378.95;2138807;82;21546;-86
2022/02/17 07:06:09;;;;;;;2.47;1.00;;;;;;;6.39;81.65;97480.58;2144715;82;21051;-84
2022/02/17 07:09:10;;;;;;;7.05;2.10;;;;;;;6.32;81.51;97470.58;2143297;83;21486;-86
2022/02/17 07:12:13;;;;;;;3.58;1.55;;;;;;;6.27;81.49;97466.71;2137978;83;21054;-86
2022/02/17 07:15:14;;;;;;;2.05;1.32;;;;;;;6.25;81.18;97435.84;2143146;83;20984;-84
2022/02/17 07:18:19;;;;;;;3.72;1.47;;;;;;;6.24;81.06;97468.95;2141202;82;21549;-85
2022/02/17 07:21:20;;;;;;;3.37;1.70;;;;;;;6.22;81.17;97479.70;2143375;82;20989;-85
2022/02/17 07:24:23;;;;;;;3.90;1.20;;;;;;;6.21;81.08;97492.55;2135362;83;20980;-84
2022/02/17 07:27:24;;;;;;;1.77;1.10;;;;;;;6.22;80.83;97486.77;2137966;82;21551;-84
2022/02/17 07:30:25;;;;;;;5.87;1.45;;;;;;;6.24;80.90;97486.06;2137891;82;21050;-86
2022/02/17 07:33:27;;;;;;;4.30;1.45;;;;;;;6.27;80.76;97493.05;2140069;82;22369;-86
2022/02/17 07:36:28;;;;;;;3.83;1.22;;;;;;;6.30;80.66;97436.53;2138171;82;21000;-85
2022/02/17 07:39:29;;;;;;;2.83;1.20;;;;;;;6.34;80.52;97445.66;2141497;82;21010;-86
2022/02/17 07:42:31;;;;;;;3.22;1.50;;;;;;;6.37;80.22;97468.14;2141909;82;21070;-85
2022/02/17 07:45:35;;;;;;;2.72;1.27;;;;;;;6.40;79.94;97442.20;2140167;82;21023;-83
2022/02/17 07:48:37;;;;;;;4.20;2.05;;;;;;;6.43;79.92;97454.15;2145084;82;21571;-87
2022/02/17 07:51:39;;;;;;;2.62;1.70;;;;;;;6.47;79.56;97442.17;2139853;82;21106;-85
2022/02/17 07:54:40;;;;;;;4.80;1.55;;;;;;;6.56;79.49;97442.77;2140135;83;21054;-86
2022/02/17 07:57:42;;;;;;;3.20;1.70;;;;;;;6.67;79.42;97444.28;2134228;82;21052;-84
2022/02/17 08:00:44;;;;;;;4.15;1.30;;;;;;;6.75;78.77;97456.40;2139110;83;21499;-85
2022/02/17 08:03:46;;;;;;;3.75;1.50;;;;;;;6.82;78.57;97455.08;2144340;82;21327;-84
2022/02/17 08:06:47;;;;;;;2.98;1.12;;;;;;;6.90;77.45;97457.49;2136961;82;21117;-86
2022/02/17 08:09:49;;;;;;;5.08;1.52;;;;;;;6.98;77.36;97465.14;2141107;82;21546;-86
2022/02/17 08:12:50;;;;;;;3.85;1.72;;;;;;;7.04;77.16;97446.36;2141921;82;21056;-84
2022/02/17 08:15:52;;;;;;;3.05;1.30;;;;;;;7.08;76.19;97460.25;2138598;82;21062;-86
2022/02/17 08:18:54;;;;;;;8.55;1.45;;;;;;;7.16;75.50;97477.67;2134697;82;21043;-85
2022/02/17 08:21:56;;;;;;;3.90;1.55;;;;;;;7.28;74.92;97493.64;2136428;82;20979;-85
2022/02/17 08:24:58;;;;;;;3.00;1.52;;;;;;;7.72;75.34;97491.49;2129894;82;21022;-85
2022/02/17 08:28:00;;;;;;;6.00;1.40;;;;;;;7.94;73.37;97484.53;2130333;83;20948;-86
2022/02/17 08:31:01;;;;;;;20.25;1.75;;;;;;;8.00;73.45;97508.27;2141895;82;21035;-85
2022/02/17 08:34:05;;;;;;;5.97;1.82;;;;;;;8.09;72.32;97508.30;2135065;83;21003;-86
2022/02/17 08:37:07;;;;;;;4.80;1.30;;;;;;;8.16;71.76;97541.78;2140971;82;21043;-84
2022/02/17 08:40:11;;;;;;;3.35;1.30;;;;;;;8.55;71.45;97512.94;2134578;83;20975;-85
2022/02/17 08:43:13;;;;;;;8.28;1.35;;;;;;;8.65;69.98;97505.86;2138737;83;21067;-86
2022/02/17 08:46:15;;;;;;;5.25;1.45;;;;;;;8.49;69.42;97497.44;2138822;83;21078;-85
2022/02/17 08:49:17;;;;;;;5.75;1.75;;;;;;;8.73;68.09;97512.19;2141368;82;21016;-86
2022/02/17 08:52:21;;;;;;;6.62;1.80;;;;;;;9.07;66.90;97510.81;2138709;82;21032;-85
2022/02/17 08:55:23;;;;;;;2.90;1.20;;;;;;;9.32;65.89;97505.92;2128504;83;21434;-87
2022/02/17 08:58:25;;;;;;;3.58;1.50;;;;;;;9.60;67.46;97508.85;2111170;84;21476;-85
2022/02/17 09:01:27;;;;;;;8.08;1.80;;;;;;;9.88;64.83;97497.66;2119522;84;21038;-84
2022/02/17 09:04:30;;;;;;;5.90;1.72;;;;;;;10.00;65.35;97496.37;2107595;84;20971;-86
2022/02/17 09:07:32;;;;;;;4.97;1.60;;;;;;;10.13;64.04;97501.16;2112599;84;21034;-86
2022/02/17 09:10:33;;;;;;;4.92;1.40;;;;;;;10.22;63.76;97455.58;2118555;84;21519;-87
2022/02/17 09:13:35;;;;;;;13.93;2.08;;;;;;;10.34;62.83;97498.54;2115943;84;21054;-85
2022/02/17 09:16:36;;;;;;;5.95;1.80;;;;;;;10.47;62.48;97494.32;2111448;84;21009;-85
2022/02/17 09:19:38;;;;;;;6.08;1.45;;;;;;;10.51;61.85;97491.52;2107067;84;21085;-87
2022/02/17 09:22:40;;;;;;;5.65;1.80;;;;;;;10.49;60.45;97459.12;2110851;83;21528;-85
2022/02/17 09:25:42;;;;;;;8.60;2.47;;;;;;;10.61;59.44;97467.86;2110841;84;21071;-86
2022/02/17 09:28:48;;;;;;;9.20;3.50;;;;;;;10.83;59.75;97488.50;2114775;84;21030;-86
2022/02/17 09:31:50;;;;;;;5.10;1.95;;;;;;;10.96;58.81;97485.61;2111612;84;21422;-85
2022/02/17 09:34:52;;;;;;;11.12;1.72;;;;;;;11.02;57.50;97478.56;2111518;84;21523;-86
2022/02/17 09:37:53;;;;;;;4.75;1.42;;;;;;;10.95;56.92;97480.00;2115427;84;21715;-87
2022/02/17 09:40:56;;;;;;;3.27;1.50;;;;;;;10.79;56.99;97488.69;2107182;84;21065;-86
2022/02/17 09:44:03;;;;;;;6.62;2.60;;;;;;;10.67;57.80;97484.70;2111692;83;21077;-85
2022/02/17 09:47:07;;;;;;;4.35;1.57;;;;;;;10.40;56.62;97494.97;2103935;84;21590;-86
2022/02/17 09:50:13;;;;;;;7.42;1.90;;;;;;;10.16;56.32;97480.83;2107437;84;21012;-86
2022/02/17 09:53:18;;;;;;;3.52;1.40;;;;;;;10.41;54.64;97464.77;2114251;84;21064;-86
2022/02/17 09:56:24;;;;;;;5.55;1.80;;;;;;;10.61;54.11;97489.08;2109593;84;21060;-86
2022/02/17 09:59:25;;;;;;;5.10;1.57;;;;;;;10.83;54.42;97509.72;2118317;84;21001;-87
2022/02/17 10:02:27;;;;;;;6.33;1.95;;;;;;;10.97;53.54;97511.89;2115069;84;20987;-87
2022/02/17 10:05:29;;;;;;;8.23;1.65;;;;;;;11.05;54.16;97505.95;2106717;84;21058;-86
2022/02/17 10:08:31;;;;;;;5.03;1.90;;;;;;;11.04;51.33;97476.46;2112444;84;21563;-88
2022/02/17 10:11:32;;;;;;;6.08;1.72;;;;;;;11.04;51.63;97487.91;2114313;84;20975;-84
2022/02/17 10:14:34;;;;;;;5.53;1.52;;;;;;;10.99;53.01;97511.67;2102555;84;21057;-87
2022/02/17 10:17:37;;;;;;;5.28;1.45;;;;;;;10.95;51.43;97505.20;2114093;84;21593;-86
2022/02/17 10:21:05;;;;;;;3.85;1.45;;;;;;;10.97;52.48;97517.20;2113890;84;21062;-87
2022/02/17 10:24:06;;;;;;;6.15;1.80;;;;;;;11.08;52.13;97523.53;2110128;84;21026;-85
2022/02/17 10:27:16;;;;;;;2.95;1.32;;;;;;;11.11;51.17;97508.47;2112744;84;21030;-85
2022/02/17 10:30:19;;;;;;;6.08;2.05;;;;;;;11.17;50.84;97527.44;2107217;84;21018;-87
2022/02/17 10:33:20;;;;;;;3.52;1.30;;;;;;;11.14;50.95;97525.25;2112687;84;21082;-85
2022/02/17 10:36:40;;;;;;;2.95;1.30;;;;;;;10.94;50.25;97495.64;2087100;84;21109;-86
2022/02/17 10:39:44;;;;;;;3.02;1.30;;;;;;;10.96;51.04;97515.59;2115013;83;21014;-86
2022/02/17 10:43:13;;;;;;;2.60;1.10;;;;;;;10.99;51.73;97532.37;2115307;84;21471;-86
2022/02/17 10:46:15;;;;;;;5.30;1.45;;;;;;;11.03;50.68;97514.66;2118083;82;21576;-87
2022/02/17 11:11:53;;;;;;;2.90;1.45;;;;;;;11.42;50.41;97566.18;2310020;75;23014;-73
2022/02/17 11:14:58;;;;;;;5.50;1.52;;;;;;;11.33;49.93;97573.70;2302109;76;21024;-74
2022/02/17 11:18:07;;;;;;;3.17;1.37;;;;;;;11.42;51.85;97578.13;2295512;76;21005;-74
2022/02/17 11:21:14;;;;;;;10.05;2.20;;;;;;;11.31;50.88;97597.54;2295492;76;21071;-78
2022/02/17 11:24:13;;;;;;;7.65;1.98;;;;;;;11.08;50.75;97599.69;2277176;76;20934;-76
2022/02/17 11:27:17;;;;;;;3.45;1.25;;;;;;;10.90;49.36;97584.18;2298513;76;20980;-75
2022/02/17 11:30:27;;;;;;;3.70;1.52;;;;;;;10.92;50.81;97592.69;2300480;76;21005;-79
2022/02/17 11:33:32;;;;;;;8.10;1.67;;;;;;;11.08;50.45;97618.27;2303395;77;21009;-75
2022/02/17 11:36:34;;;;;;;4.65;1.60;;;;;;;11.14;49.43;97619.47;2301992;77;21025;-74
2022/02/17 11:40:08;;;;;;;9.53;1.67;;;;;;;11.03;49.53;97612.84;2300606;76;21527;-75
2022/02/17 11:43:10;;;;;;;5.05;1.98;;;;;;;10.88;49.55;97615.95;2297172;77;22190;-73
2022/02/17 11:46:16;;;;;;;3.92;1.55;;;;;;;10.96;49.60;97589.08;2305630;77;21049;-74
2022/02/17 11:49:36;;;;;;;7.90;1.90;;;;;;;11.06;49.73;97622.47;2305677;77;21088;-73
2022/02/17 11:52:39;;;;;;;7.87;2.00;;;;;;;11.16;50.45;97638.63;2302907;76;21028;-74
2022/02/17 11:55:42;;;;;;;4.58;1.50;;;;;;;11.45;50.22;97644.04;2302333;77;21064;-73
2022/02/17 11:58:52;;;;;;;4.50;1.72;;;;;;;11.60;48.64;97612.52;2303026;77;21039;-73
2022/02/17 12:02:06;;;;;;;5.60;1.87;;;;;;;11.66;47.57;97637.33;2268225;77;21026;-73
2022/02/17 12:05:15;;;;;;;5.67;1.32;;;;;;;11.72;47.62;97643.03;2306265;77;20990;-73
2022/02/17 13:56:04;;;;;;;5.40;1.98;;;;;;;9.05;53.64;97830.80;2307066;75;22975;-70
2022/02/17 13:59:06;;;;;;;6.42;1.95;;;;;;;8.97;53.80;97843.75;2302802;77;21055;-70
2022/02/17 14:02:10;;;;;;;5.12;2.33;;;;;;;8.94;53.97;97848.15;2297258;77;20989;-70
2022/02/17 14:05:11;;;;;;;5.45;1.98;;;;;;;8.91;53.53;97846.73;2305170;77;20990;-70
2022/02/17 14:08:13;;;;;;;4.83;1.80;;;;;;;8.86;53.50;97851.84;2308138;76;21009;-72
2022/02/17 14:11:17;;;;;;;9.98;1.90;;;;;;;8.80;53.99;97865.91;2308450;77;21069;-71
2022/02/17 14:14:20;;;;;;;6.00;1.80;;;;;;;8.74;54.52;97842.44;2298900;77;20987;-70
2022/02/17 14:17:25;;;;;;;4.92;1.62;;;;;;;8.66;55.04;97885.48;2304255;77;20949;-70
2022/02/17 14:20:27;;;;;;;5.65;2.17;;;;;;;8.56;55.02;97886.42;2301214;76;21040;-70
2022/02/17 14:23:31;;;;;;;9.03;1.90;;;;;;;8.50;55.86;97907.41;2306666;77;21014;-72
2022/02/17 14:26:34;;;;;;;9.90;2.42;;;;;;;8.44;55.83;97891.03;2304545;77;21059;-73
2022/02/17 14:29:39;;;;;;;5.70;1.85;;;;;;;8.45;55.83;97905.08;2276541;77;21038;-72
2022/02/17 14:32:40;;;;;;;5.05;1.50;;;;;;;8.45;55.79;97927.03;2308005;77;20996;-70
2022/02/17 14:35:44;;;;;;;6.95;1.80;;;;;;;8.46;55.60;97928.64;2310399;76;20958;-70
2022/02/17 14:38:46;;;;;;;4.47;1.80;;;;;;;8.48;55.87;97945.63;2300140;77;21456;-70
2022/02/17 14:41:48;;;;;;;11.90;2.20;;;;;;;8.45;55.58;97953.46;2303443;76;20974;-71
2022/02/17 14:44:50;;;;;;;6.62;1.82;;;;;;;8.41;56.11;97955.39;2307916;77;20975;-72
2022/02/17 14:47:54;;;;;;;7.95;2.25;;;;;;;8.37;55.72;97974.78;2300101;76;21024;-70
2022/02/17 14:50:59;;;;;;;7.53;2.00;;;;;;;8.33;55.26;97965.63;2301136;75;21009;-70
2022/02/17 14:54:03;;;;;;;8.93;1.60;;;;;;;8.28;54.47;97972.05;2293859;77;21031;-70
2022/02/17 14:57:05;;;;;;;8.25;1.82;;;;;;;8.25;53.91;97994.89;2300950;77;21525;-71
2022/02/17 15:00:08;;;;;;;3.98;1.40;;;;;;;8.22;54.02;97984.73;2297633;77;21020;-71
2022/02/17 15:03:10;;;;;;;3.70;1.57;;;;;;;8.20;54.22;98005.28;2310463;77;21034;-71
2022/02/17 15:06:12;;;;;;;6.62;1.92;;;;;;;8.16;53.10;97982.91;2304282;77;21033;-76
2022/02/17 15:09:16;;;;;;;10.80;1.60;;;;;;;8.15;53.76;98044.69;2302349;76;21506;-73
2022/02/17 15:12:18;;;;;;;6.92;1.40;;;;;;;8.12;52.95;98014.72;2306341;77;21013;-72
2022/02/17 15:15:22;;;;;;;5.25;2.15;;;;;;;8.08;52.61;98016.92;2303946;77;21072;-73
2022/02/17 15:18:24;;;;;;;4.90;1.70;;;;;;;8.04;53.25;98041.62;2306658;76;21023;-72
2022/02/17 15:21:27;;;;;;;3.15;1.55;;;;;;;7.97;54.28;98038.65;2301780;77;20989;-73
2022/02/17 15:24:29;;;;;;;5.87;1.60;;;;;;;7.91;54.75;98066.67;2306230;77;20995;-70
2022/02/17 15:27:31;;;;;;;8.85;1.40;;;;;;;7.84;55.20;98063.22;2298805;77;21146;-70
2022/02/17 15:30:33;;;;;;;3.02;1.40;;;;;;;7.75;54.98;98078.94;2209831;79;21080;-70
2022/02/17 15:33:37;;;;;;;5.83;1.60;;;;;;;7.67;55.24;98072.52;2227893;79;21530;-70
2022/02/17 15:36:43;;;;;;;4.40;1.82;;;;;;;7.59;55.21;98079.58;2232520;79;20957;-69
2022/02/17 15:39:45;;;;;;;4.75;1.47;;;;;;;7.55;55.11;98092.06;2230697;79;20978;-68
2022/02/17 15:42:54;;;;;;;4.22;1.75;;;;;;;7.51;55.18;98091.62;2230118;79;21060;-72
2022/02/17 15:46:00;;;;;;;4.37;1.72;;;;;;;7.49;55.53;98102.06;2223941;79;21004;-70
2022/02/17 15:49:03;;;;;;;6.87;1.47;;;;;;;7.43;55.93;98101.53;2234022;79;21013;-76
2022/02/17 15:52:06;;;;;;;6.90;1.50;;;;;;;7.30;57.64;98160.33;2233275;79;21054;-69
2022/02/17 15:55:13;;;;;;;6.42;1.75;;;;;;;7.03;58.06;98150.90;2256849;77;21080;-71
2022/02/17 15:58:22;;;;;;;4.42;1.57;;;;;;;6.88;58.12;98145.73;2257567;78;21442;-71
2022/02/17 16:01:24;;;;;;;3.87;1.47;;;;;;;6.80;58.50;98163.50;2255347;77;21048;-71
2022/02/17 16:04:26;;;;;;;5.40;2.17;;;;;;;6.74;58.74;98160.62;2254554;77;20962;-71
2022/02/17 16:07:32;;;;;;;3.05;1.20;;;;;;;6.69;59.13;98184.09;2260539;77;20935;-70
2022/02/17 16:10:38;;;;;;;5.67;1.50;;;;;;;6.66;59.42;98187.10;2256281;77;20974;-72
2022/02/17 16:13:40;;;;;;;4.47;1.65;;;;;;;6.66;59.32;98201.59;2258957;77;20967;-71
2022/02/17 16:16:45;;;;;;;5.78;2.10;;;;;;;6.60;59.98;98206.81;2257745;77;21075;-71
2022/02/17 16:19:49;;;;;;;9.83;1.98;;;;;;;6.58;60.25;98222.80;2253608;77;21028;-71
2022/02/17 16:22:50;;;;;;;8.68;1.70;;;;;;;6.55;60.53;98198.14;2260343;77;21043;-70
2022/02/17 16:25:55;;;;;;;4.97;2.05;;;;;;;6.53;60.56;98246.25;2256823;77;20998;-71
2022/02/17 16:28:58;;;;;;;7.20;2.00;;;;;;;6.49;60.97;98264.77;2260966;77;20964;-71
2022/02/17 16:32:01;;;;;;;6.95;2.00;;;;;;;6.46;61.11;98271.22;2255076;77;20990;-73
2022/02/17 16:35:03;;;;;;;8.20;1.77;;;;;;;6.45;60.70;98276.69;2255757;77;20951;-71
2022/02/17 16:38:07;;;;;;;2.47;1.32;;;;;;;6.44;60.35;98267.14;2261188;77;21042;-71
2022/02/17 16:41:09;;;;;;;4.08;1.57;;;;;;;6.47;59.98;98278.62;2256082;77;21014;-71